Time,TemperatureF,DewpointF,PressureIn,WindDirection,WindDirectionDegrees,WindSpeedMPH,WindSpeedGustMPH,Humidity,HourlyPrecipIn,Conditions,Clouds,dailyrainin,SoftwareType,DateUTC
2013-03-08 00:06:00,34.1,26.0,30.16,NW,317,0.0,2.0,72,0.00,,,0.00,weatherlink.com 1.10,2013-03-08 05:06:00,
2013-03-08 00:21:00,33.6,26.0,30.16,NW,323,0.0,2.0,73,0.00,,,0.00,weatherlink.com 1.10,2013-03-08 05:21:00,
2013-03-08 00:36:00,33.3,26.0,30.16,WNW,302,0.0,2.0,73,0.00,,,0.00,weatherlink.com 1.10,2013-03-08 05:36:00,
2013-03-08 00:51:00,32.8,25.0,30.17,NW,316,1.0,1.0,72,0.00,,,0.00,weatherlink.com 1.10,2013-03-08 05:51:00,
2013-03-08 01:06:00,32.6,24.0,30.17,NNW,345,0.0,2.0,71,0.00,,,0.00,weatherlink.com 1.10,2013-03-08 06:06:00,
2013-03-08 01:21:00,32.3,24.0,30.17,NW,322,0.0,1.0,71,0.00,,,0.00,weatherlink.com 1.10,2013-03-08 06:21:00,
2013-03-08 01:36:00,31.9,23.0,30.17,NW,322,0.0,1.0,71,0.00,,,0.00,weatherlink.com 1.10,2013-03-08 06:36:00,
2013-03-08 01:51:00,31.3,24.0,30.17,NW,322,0.0,0.0,73,0.00,,,0.00,weatherlink.com 1.10,2013-03-08 06:51:00,
2013-03-08 02:06:00,31.0,23.0,30.17,NW,322,0.0,0.0,73,0.00,,,0.00,weatherlink.com 1.10,2013-03-08 07:06:00,
2013-03-08 02:21:00,30.6,23.0,30.17,NW,321,1.0,1.0,74,0.00,,,0.00,weatherlink.com 1.10,2013-03-08 07:21:00,
2013-03-08 02:36:00,30.3,24.0,30.17,WSW,252,0.0,2.0,76,0.00,,,0.00,weatherlink.com 1.10,2013-03-08 07:36:00,
2013-03-08 02:51:00,30.1,23.0,30.16,WSW,252,1.0,1.0,76,0.00,,,0.00,weatherlink.com 1.10,2013-03-08 07:51:00,
2013-03-08 03:06:00,30.0,23.0,30.16,WSW,252,0.0,1.0,76,0.00,,,0.00,weatherlink.com 1.10,2013-03-08 08:06:00,
2013-03-08 03:21:00,29.4,23.0,30.16,WSW,252,0.0,1.0,78,0.00,,,0.00,weatherlink.com 1.10,2013-03-08 08:21:00,
2013-03-08 03:36:00,29.5,24.0,30.16,WSW,245,0.0,1.0,79,0.00,,,0.00,weatherlink.com 1.10,2013-03-08 08:36:00,
2013-03-08 03:51:00,29.7,24.0,30.16,NNW,336,1.0,2.0,78,0.00,,,0.00,weatherlink.com 1.10,2013-03-08 08:51:00,
2013-03-08 04:06:00,29.6,24.0,30.16,NW,314,1.0,1.0,78,0.00,,,0.00,weatherlink.com 1.10,2013-03-08 09:06:00,
2013-03-08 04:21:00,29.4,24.0,30.16,NW,314,0.0,1.0,79,0.00,,,0.00,weatherlink.com 1.10,2013-03-08 09:21:00,
2013-03-08 04:36:00,29.3,24.0,30.16,NW,312,0.0,1.0,79,0.00,,,0.00,weatherlink.com 1.10,2013-03-08 09:36:00,
2013-03-08 04:51:00,29.2,24.0,30.16,WNW,298,0.0,2.0,80,0.00,,,0.00,weatherlink.com 1.10,2013-03-08 09:51:00,
2013-03-08 05:06:00,29.2,24.0,30.16,WNW,283,1.0,2.0,80,0.00,,,0.00,weatherlink.com 1.10,2013-03-08 10:06:00,
2013-03-08 05:21:00,29.7,24.0,30.16,West,280,1.0,2.0,80,0.00,,,0.00,weatherlink.com 1.10,2013-03-08 10:21:00,
2013-03-08 05:36:00,29.8,24.0,30.16,West,259,0.0,2.0,80,0.00,,,0.00,weatherlink.com 1.10,2013-03-08 10:36:00,
2013-03-08 05:51:00,30.4,24.0,30.16,WNW,283,0.0,2.0,78,0.00,,,0.00,weatherlink.com 1.10,2013-03-08 10:51:00,
2013-03-08 06:06:00,30.9,25.0,30.16,West,262,1.0,2.0,77,0.00,,,0.00,weatherlink.com 1.10,2013-03-08 11:06:00,
2013-03-08 06:21:00,31.5,25.0,30.16,West,263,0.0,1.0,76,0.00,,,0.00,weatherlink.com 1.10,2013-03-08 11:21:00,
2013-03-08 06:36:00,31.8,24.0,30.16,WSW,237,1.0,2.0,74,0.00,,,0.00,weatherlink.com 1.10,2013-03-08 11:36:00,
2013-03-08 06:51:00,32.0,25.0,30.17,WNW,290,2.0,3.0,74,0.00,,,0.00,weatherlink.com 1.10,2013-03-08 11:51:00,
2013-03-08 07:06:00,32.6,25.0,30.17,West,270,1.0,4.0,74,0.00,,,0.00,weatherlink.com 1.10,2013-03-08 12:06:00,
2013-03-08 07:21:00,32.7,25.0,30.18,West,263,1.0,5.0,74,0.00,,,0.00,weatherlink.com 1.10,2013-03-08 12:21:00,
2013-03-08 07:36:00,32.9,25.0,30.18,SW,233,2.0,3.0,74,0.00,,,0.00,weatherlink.com 1.10,2013-03-08 12:36:00,
2013-03-08 07:51:00,33.1,26.0,30.18,SSW,205,2.0,5.0,75,0.00,,,0.00,weatherlink.com 1.10,2013-03-08 12:51:00,
2013-03-08 08:07:00,33.3,26.0,30.19,SW,233,2.0,4.0,74,0.00,,,0.00,weatherlink.com 1.10,2013-03-08 13:07:00,
2013-03-08 08:22:00,33.1,26.0,30.19,WSW,242,1.0,4.0,76,0.00,,,0.00,weatherlink.com 1.10,2013-03-08 13:22:00,
2013-03-08 08:36:00,33.1,27.0,30.19,SW,233,3.0,3.0,77,0.00,,,0.00,weatherlink.com 1.10,2013-03-08 13:36:00,
2013-03-08 08:52:00,33.5,26.0,30.19,NNE,26,0.0,4.0,75,0.00,,,0.00,weatherlink.com 1.10,2013-03-08 13:52:00,
2013-03-08 09:07:00,34.5,27.0,30.19,WSW,253,3.0,5.0,73,0.00,,,0.00,weatherlink.com 1.10,2013-03-08 14:07:00,
2013-03-08 09:22:00,36.0,27.0,30.19,WSW,252,2.0,5.0,71,0.00,,,0.00,weatherlink.com 1.10,2013-03-08 14:22:00,
2013-03-08 09:37:00,36.8,27.0,30.18,SW,224,2.0,4.0,67,0.00,,,0.00,weatherlink.com 1.10,2013-03-08 14:37:00,
2013-03-08 09:52:00,37.1,27.0,30.18,South,180,6.0,6.0,66,0.00,,,0.00,weatherlink.com 1.10,2013-03-08 14:52:00,
2013-03-08 10:07:00,38.0,28.0,30.19,WSW,255,0.0,8.0,67,0.00,,,0.00,weatherlink.com 1.10,2013-03-08 15:07:00,
2013-03-08 10:22:00,38.8,28.0,30.18,WSW,242,5.0,6.0,66,0.00,,,0.00,weatherlink.com 1.10,2013-03-08 15:22:00,
2013-03-08 10:37:00,40.6,29.0,30.18,North,11,5.0,5.0,63,0.00,,,0.00,weatherlink.com 1.10,2013-03-08 15:37:00,
2013-03-08 10:52:00,40.8,29.0,30.18,WNW,284,2.0,5.0,62,0.00,,,0.00,weatherlink.com 1.10,2013-03-08 15:52:00,
2013-03-08 11:07:00,41.1,28.0,30.18,SW,221,4.0,6.0,60,0.00,,,0.00,weatherlink.com 1.10,2013-03-08 16:07:00,
2013-03-08 11:22:00,41.7,29.0,30.18,South,188,2.0,6.0,60,0.00,,,0.00,weatherlink.com 1.10,2013-03-08 16:22:00,
2013-03-08 11:37:00,42.4,29.0,30.18,SSW,203,4.0,5.0,59,0.00,,,0.00,weatherlink.com 1.10,2013-03-08 16:37:00,
2013-03-08 11:52:00,42.2,29.0,30.18,SSW,207,2.0,8.0,60,0.00,,,0.00,weatherlink.com 1.10,2013-03-08 16:52:00,
2013-03-08 12:07:00,41.9,29.0,30.18,WSW,239,3.0,5.0,60,0.00,,,0.00,weatherlink.com 1.10,2013-03-08 17:07:00,
2013-03-08 12:22:00,42.5,29.0,30.18,SW,233,3.0,4.0,59,0.00,,,0.00,weatherlink.com 1.10,2013-03-08 17:22:00,
2013-03-08 12:37:00,42.8,29.0,30.17,SSW,197,1.0,4.0,58,0.00,,,0.00,weatherlink.com 1.10,2013-03-08 17:37:00,
2013-03-08 12:52:00,43.1,29.0,30.16,WSW,248,2.0,4.0,59,0.00,,,0.00,weatherlink.com 1.10,2013-03-08 17:52:00,
2013-03-08 13:07:00,42.8,29.0,30.16,SW,222,2.0,5.0,58,0.00,,,0.00,weatherlink.com 1.10,2013-03-08 18:07:00,
2013-03-08 13:22:00,43.2,29.0,30.16,East,98,3.0,7.0,58,0.00,,,0.00,weatherlink.com 1.10,2013-03-08 18:22:00,
2013-03-08 13:37:00,43.9,30.0,30.16,SW,229,3.0,5.0,58,0.00,,,0.00,weatherlink.com 1.10,2013-03-08 18:37:00,
2013-03-08 13:52:00,44.4,30.0,30.16,SSW,193,1.0,6.0,58,0.00,,,0.00,weatherlink.com 1.10,2013-03-08 18:52:00,
2013-03-08 14:08:00,44.2,30.0,30.16,SSW,200,0.0,5.0,57,0.00,,,0.00,weatherlink.com 1.10,2013-03-08 19:08:00,
2013-03-08 14:22:00,44.5,30.0,30.16,WSW,242,1.0,7.0,58,0.00,,,0.00,weatherlink.com 1.10,2013-03-08 19:22:00,
2013-03-08 14:37:00,45.1,31.0,30.16,SW,221,3.0,5.0,58,0.00,,,0.00,weatherlink.com 1.10,2013-03-08 19:37:00,
2013-03-08 14:52:00,45.3,31.0,30.17,WNW,290,5.0,9.0,57,0.00,,,0.00,weatherlink.com 1.10,2013-03-08 19:52:00,
2013-03-08 15:07:00,44.5,30.0,30.17,WSW,242,2.0,3.0,57,0.00,,,0.00,weatherlink.com 1.10,2013-03-08 20:07:00,
2013-03-08 15:22:00,44.3,31.0,30.18,WSW,248,2.0,3.0,59,0.00,,,0.00,weatherlink.com 1.10,2013-03-08 20:22:00,
2013-03-08 15:37:00,44.0,31.0,30.18,West,273,2.0,3.0,60,0.00,,,0.00,weatherlink.com 1.10,2013-03-08 20:37:00,
2013-03-08 15:52:00,43.9,31.0,30.19,WSW,241,0.0,4.0,61,0.00,,,0.00,weatherlink.com 1.10,2013-03-08 20:52:00,
2013-03-08 16:07:00,43.8,31.0,30.19,West,280,0.0,3.0,61,0.00,,,0.00,weatherlink.com 1.10,2013-03-08 21:07:00,
2013-03-08 16:22:00,43.8,31.0,30.19,WNW,290,2.0,8.0,60,0.00,,,0.00,weatherlink.com 1.10,2013-03-08 21:22:00,
2013-03-08 16:37:00,43.7,30.0,30.20,West,269,2.0,3.0,59,0.00,,,0.00,weatherlink.com 1.10,2013-03-08 21:37:00,
2013-03-08 16:52:00,43.7,31.0,30.21,SW,232,0.0,4.0,61,0.00,,,0.00,weatherlink.com 1.10,2013-03-08 21:52:00,
2013-03-08 17:07:00,43.5,30.0,30.22,WSW,253,1.0,4.0,60,0.00,,,0.00,weatherlink.com 1.10,2013-03-08 22:07:00,
2013-03-08 17:22:00,43.4,30.0,30.23,SSW,210,0.0,12.0,60,0.00,,,0.00,weatherlink.com 1.10,2013-03-08 22:22:00,
2013-03-08 17:38:00,43.2,31.0,30.23,SSW,205,2.0,4.0,63,0.00,,,0.00,weatherlink.com 1.10,2013-03-08 22:38:00,
2013-03-08 17:53:00,42.9,31.0,30.24,SW,229,0.0,3.0,63,0.00,,,0.00,weatherlink.com 1.10,2013-03-08 22:53:00,
2013-03-08 18:08:00,42.6,30.0,30.24,West,270,0.0,2.0,61,0.00,,,0.00,weatherlink.com 1.10,2013-03-08 23:08:00,
2013-03-08 18:23:00,42.4,30.0,30.25,West,271,0.0,1.0,62,0.00,,,0.00,weatherlink.com 1.10,2013-03-08 23:23:00,
2013-03-08 18:38:00,42.2,30.0,30.25,SSW,211,1.0,3.0,63,0.00,,,0.00,weatherlink.com 1.10,2013-03-08 23:38:00,
2013-03-08 18:53:00,42.1,30.0,30.26,WNW,286,0.0,2.0,62,0.00,,,0.00,weatherlink.com 1.10,2013-03-08 23:53:00,
2013-03-08 19:08:00,41.9,29.0,30.27,West,280,0.0,2.0,61,0.00,,,0.00,weatherlink.com 1.10,2013-03-09 00:08:00,
2013-03-08 19:23:00,40.8,28.0,30.27,NW,321,0.0,1.0,61,0.00,,,0.00,weatherlink.com 1.10,2013-03-09 00:23:00,
2013-03-08 19:38:00,39.7,28.0,30.27,NW,317,1.0,1.0,63,0.00,,,0.00,weatherlink.com 1.10,2013-03-09 00:38:00,
2013-03-08 19:53:00,39.0,28.0,30.28,North,360,0.0,1.0,64,0.00,,,0.00,weatherlink.com 1.10,2013-03-09 00:53:00,
2013-03-08 20:08:00,38.7,28.0,30.28,North,360,1.0,1.0,65,0.00,,,0.00,weatherlink.com 1.10,2013-03-09 01:08:00,
2013-03-08 20:23:00,38.8,28.0,30.29,WNW,298,0.0,1.0,65,0.00,,,0.00,weatherlink.com 1.10,2013-03-09 01:23:00,
2013-03-08 20:38:00,38.6,28.0,30.29,WNW,298,0.0,1.0,66,0.00,,,0.00,weatherlink.com 1.10,2013-03-09 01:38:00,
2013-03-08 20:53:00,37.8,28.0,30.30,WNW,299,0.0,2.0,68,0.00,,,0.00,weatherlink.com 1.10,2013-03-09 01:53:00,
2013-03-08 21:08:00,37.1,28.0,30.30,NW,324,0.0,1.0,69,0.00,,,0.00,weatherlink.com 1.10,2013-03-09 02:08:00,
2013-03-08 21:23:00,36.7,28.0,30.30,NNW,329,0.0,1.0,70,0.00,,,0.00,weatherlink.com 1.10,2013-03-09 02:23:00,
2013-03-08 21:38:00,36.6,27.0,30.30,NNW,329,0.0,1.0,69,0.00,,,0.00,weatherlink.com 1.10,2013-03-09 02:38:00,
2013-03-08 21:53:00,36.5,27.0,30.31,NNW,335,0.0,1.0,69,0.00,,,0.00,weatherlink.com 1.10,2013-03-09 02:53:00,
2013-03-08 22:08:00,36.1,27.0,30.31,West,280,1.0,1.0,69,0.00,,,0.00,weatherlink.com 1.10,2013-03-09 03:08:00,
2013-03-08 22:23:00,36.1,26.0,30.31,WNW,283,1.0,2.0,67,0.00,,,0.00,weatherlink.com 1.10,2013-03-09 03:23:00,
2013-03-08 22:38:00,35.9,25.0,30.32,WNW,283,1.0,1.0,65,0.00,,,0.00,weatherlink.com 1.10,2013-03-09 03:38:00,
2013-03-08 22:53:00,35.4,25.0,30.32,WNW,283,0.0,1.0,66,0.00,,,0.00,weatherlink.com 1.10,2013-03-09 03:53:00,
2013-03-08 23:08:00,34.9,25.0,30.32,WNW,283,0.0,1.0,67,0.00,,,0.00,weatherlink.com 1.10,2013-03-09 04:08:00,
2013-03-08 23:23:00,34.4,24.0,30.32,WNW,283,0.0,0.0,67,0.00,,,0.00,weatherlink.com 1.10,2013-03-09 04:23:00,
2013-03-08 23:38:00,34.1,24.0,30.32,WNW,283,0.0,1.0,67,0.00,,,0.00,weatherlink.com 1.10,2013-03-09 04:38:00,
2013-03-08 23:53:00,33.4,25.0,30.31,NNE,30,0.0,0.0,70,0.00,,,0.00,weatherlink.com 1.10,2013-03-09 04:53:00,